Time;durP1;ratioP1;P1;durP2;ratioP2;P2;SDS_P1;SDS_P2;PMS_P1;PMS_P2;Temp;Humidity;BMP_temperature;BMP_pressure;BME280_temperature;BME280_humidity;BME280_pressure;Samples;Min_cycle;Max_cycle;Signal;HPM_P1;HPM_P2
2023/09/09 00:01:39;;;;;;;10.30;6.50;;;;;;;;;;7370286;19;20007;-67
2023/09/09 00:04:05;;;;;;;9.73;6.70;;;;;;;;;;7371505;19;20403;-67
2023/09/09 00:06:30;;;;;;;9.60;6.57;;;;;;;;;;7367071;19;20010;-69
2023/09/09 00:08:55;;;;;;;11.10;6.80;;;;;;;;;;7388059;19;20473;-68
2023/09/09 00:11:21;;;;;;;12.38;7.20;;;;;;;;;;7377795;19;20840;-69
2023/09/09 00:13:46;;;;;;;12.68;7.07;;;;;;;;;;7371848;19;20010;-68
2023/09/09 00:16:11;;;;;;;10.95;6.57;;;;;;;;;;7372063;19;20006;-67
2023/09/09 00:18:37;;;;;;;9.02;6.43;;;;;;;;;;7369984;19;20366;-67
2023/09/09 00:21:04;;;;;;;11.20;7.50;;;;;;;;;;7369707;19;20042;-67
2023/09/09 00:23:30;;;;;;;9.60;6.95;;;;;;;;;;7390608;19;20051;-67
2023/09/09 00:25:55;;;;;;;9.88;7.10;;;;;;;;;;7370291;19;20468;-69
2023/09/09 00:28:21;;;;;;;13.45;6.85;;;;;;;;;;7370867;19;20018;-67
2023/09/09 00:30:46;;;;;;;11.98;7.25;;;;;;;;;;7370856;19;20003;-67
2023/09/09 00:33:12;;;;;;;12.65;7.13;;;;;;;;;;7369323;19;20409;-67
2023/09/09 00:35:38;;;;;;;13.05;7.25;;;;;;;;;;7392431;19;20003;-70
2023/09/09 00:38:13;;;;;;;12.48;6.88;;;;;;;;;;7370331;19;20006;-69
2023/09/09 00:40:43;;;;;;;13.50;9.00;;;;;;;;;;7370869;19;20006;-67
2023/09/09 00:43:08;;;;;;;13.35;7.45;;;;;;;;;;7370052;19;20015;-68
2023/09/09 00:45:34;;;;;;;10.82;7.57;;;;;;;;;;7370233;19;20015;-69
2023/09/09 00:47:59;;;;;;;12.32;7.45;;;;;;;;;;7369388;19;20002;-67
2023/09/09 00:50:25;;;;;;;11.25;7.35;;;;;;;;;;7392534;19;20015;-67
2023/09/09 00:52:50;;;;;;;10.48;7.30;;;;;;;;;;7367939;19;20075;-69
2023/09/09 00:55:16;;;;;;;11.63;7.50;;;;;;;;;;7371018;19;20011;-68
2023/09/09 00:57:41;;;;;;;14.23;7.75;;;;;;;;;;7370958;19;20207;-69
2023/09/09 01:00:10;;;;;;;9.20;6.95;;;;;;;;;;7369555;19;20014;-69
2023/09/09 01:02:37;;;;;;;10.73;7.32;;;;;;;;;;7392599;19;20003;-67
2023/09/09 01:05:03;;;;;;;11.68;7.53;;;;;;;;;;7372484;19;20015;-67
2023/09/09 01:07:49;;;;;;;12.73;7.63;;;;;;;;;;7370952;19;20006;-69
2023/09/09 01:10:18;;;;;;;12.73;8.60;;;;;;;;;;7371649;19;20015;-67
2023/09/09 01:12:44;;;;;;;14.38;7.65;;;;;;;;;;7371501;19;20011;-68
2023/09/09 01:15:11;;;;;;;13.65;7.55;;;;;;;;;;7369739;19;20014;-67
2023/09/09 01:17:37;;;;;;;12.05;7.68;;;;;;;;;;7391362;19;20024;-67
2023/09/09 01:20:13;;;;;;;11.90;7.60;;;;;;;;;;7368845;19;20382;-67
2023/09/09 01:22:40;;;;;;;10.43;7.78;;;;;;;;;;7367254;19;20600;-67
2023/09/09 01:25:06;;;;;;;11.80;7.45;;;;;;;;;;7369169;19;20006;-67
2023/09/09 01:27:32;;;;;;;10.07;7.03;;;;;;;;;;7368621;19;20586;-68
2023/09/09 01:29:58;;;;;;;10.98;7.10;;;;;;;;;;7368783;19;20006;-68
2023/09/09 01:32:24;;;;;;;11.18;6.50;;;;;;;;;;7388752;19;20006;-68
2023/09/09 01:34:50;;;;;;;11.82;7.35;;;;;;;;;;7368499;19;20011;-68
2023/09/09 01:37:16;;;;;;;10.70;7.43;;;;;;;;;;7368633;19;20070;-68
2023/09/09 01:39:41;;;;;;;11.60;7.60;;;;;;;;;;7368423;19;20014;-68
2023/09/09 01:42:07;;;;;;;10.13;7.47;;;;;;;;;;7368233;19;20647;-69
2023/09/09 01:44:32;;;;;;;12.40;7.60;;;;;;;;;;7390980;19;20041;-68
2023/09/09 01:46:57;;;;;;;10.13;7.00;;;;;;;;;;7368342;19;20018;-68
2023/09/09 01:49:22;;;;;;;9.45;6.78;;;;;;;;;;7368217;19;20568;-68
2023/09/09 01:51:48;;;;;;;10.75;6.88;;;;;;;;;;7366320;19;20472;-68
2023/09/09 01:54:13;;;;;;;12.57;6.88;;;;;;;;;;7368524;19;20010;-68
2023/09/09 01:56:38;;;;;;;9.60;6.75;;;;;;;;;;7389476;19;20006;-68
2023/09/09 01:59:04;;;;;;;11.70;7.35;;;;;;;;;;7367504;19;20019;-68
2023/09/09 02:01:29;;;;;;;11.38;6.88;;;;;;;;;;7369316;19;20099;-69
2023/09/09 02:03:54;;;;;;;9.23;6.80;;;;;;;;;;7370063;19;20428;-68
2023/09/09 02:06:20;;;;;;;10.13;7.32;;;;;;;;;;7368202;19;20037;-68
2023/09/09 02:08:45;;;;;;;9.32;6.90;;;;;;;;;;7388699;19;20590;-68
2023/09/09 02:11:10;;;;;;;10.05;7.22;;;;;;;;;;7368775;19;20059;-68
2023/09/09 02:13:36;;;;;;;9.15;6.88;;;;;;;;;;7366473;19;20086;-68
2023/09/09 02:16:05;;;;;;;11.02;7.38;;;;;;;;;;7368227;19;20333;-69
2023/09/09 02:18:30;;;;;;;10.00;6.97;;;;;;;;;;7367061;19;20081;-68
2023/09/09 02:20:58;;;;;;;11.20;6.90;;;;;;;;;;7386499;19;20023;-68
2023/09/09 02:23:24;;;;;;;9.85;7.07;;;;;;;;;;7387661;19;20020;-68
2023/09/09 02:25:49;;;;;;;11.60;7.43;;;;;;;;;;7366985;19;20015;-68
2023/09/09 02:28:15;;;;;;;10.70;6.97;;;;;;;;;;7370798;19;20010;-68
2023/09/09 02:30:43;;;;;;;9.57;6.82;;;;;;;;;;7368700;19;20017;-68
2023/09/09 02:33:08;;;;;;;11.25;7.63;;;;;;;;;;7365975;19;20577;-68
2023/09/09 02:35:34;;;;;;;12.07;8.15;;;;;;;;;;7389497;19;20010;-67
2023/09/09 02:37:59;;;;;;;11.52;7.32;;;;;;;;;;7367501;19;20010;-67
2023/09/09 02:40:24;;;;;;;10.95;7.88;;;;;;;;;;7367258;19;20014;-67
2023/09/09 02:42:50;;;;;;;14.82;8.18;;;;;;;;;;7366689;19;20013;-67
2023/09/09 02:45:15;;;;;;;10.95;7.95;;;;;;;;;;7367417;19;20548;-67
2023/09/09 02:47:40;;;;;;;10.95;7.53;;;;;;;;;;7388570;19;20073;-67
2023/09/09 02:50:07;;;;;;;10.55;8.23;;;;;;;;;;7367434;19;20021;-68
2023/09/09 02:52:32;;;;;;;11.25;8.00;;;;;;;;;;7366021;19;20010;-67
2023/09/09 02:54:57;;;;;;;11.15;7.97;;;;;;;;;;7367202;19;20458;-67
2023/09/09 02:57:23;;;;;;;11.20;8.48;;;;;;;;;;7368456;19;20026;-67
2023/09/09 02:59:49;;;;;;;15.02;9.07;;;;;;;;;;7387533;19;20074;-67
2023/09/09 03:02:15;;;;;;;13.10;8.55;;;;;;;;;;7364661;19;20100;-67
2023/09/09 03:04:40;;;;;;;13.95;9.00;;;;;;;;;;7366195;19;20459;-67
2023/09/09 03:07:05;;;;;;;10.95;8.18;;;;;;;;;;7366304;19;20011;-67
2023/09/09 03:09:35;;;;;;;11.93;9.15;;;;;;;;;;7364510;19;20456;-67
2023/09/09 03:12:02;;;;;;;13.60;9.20;;;;;;;;;;7364724;19;20015;-67
2023/09/09 03:14:28;;;;;;;12.30;8.20;;;;;;;;;;7387478;19;20043;-67
2023/09/09 03:16:53;;;;;;;12.27;8.13;;;;;;;;;;7365599;19;20539;-68
2023/09/09 03:19:19;;;;;;;11.38;7.82;;;;;;;;;;7365625;19;20006;-68
2023/09/09 03:21:45;;;;;;;11.20;7.90;;;;;;;;;;7363197;19;20024;-68
2023/09/09 03:24:10;;;;;;;10.40;7.28;;;;;;;;;;7364425;19;20010;-68
2023/09/09 03:26:35;;;;;;;11.20;8.07;;;;;;;;;;7387894;19;20035;-68
2023/09/09 03:29:01;;;;;;;12.88;8.15;;;;;;;;;;7363973;19;20515;-68
2023/09/09 03:31:26;;;;;;;11.60;7.88;;;;;;;;;;7364858;19;20480;-68
2023/09/09 03:33:51;;;;;;;12.23;8.05;;;;;;;;;;7371714;19;20021;-68
2023/09/09 03:36:17;;;;;;;11.90;7.65;;;;;;;;;;7372934;19;20014;-68
2023/09/09 03:38:42;;;;;;;14.20;8.10;;;;;;;;;;7394336;19;20357;-68
2023/09/09 03:41:08;;;;;;;12.50;8.10;;;;;;;;;;7372920;19;20617;-68
2023/09/09 03:43:37;;;;;;;13.73;8.00;;;;;;;;;;7370998;19;20135;-68
2023/09/09 03:46:03;;;;;;;9.60;6.07;;;;;;;;;;7372896;19;20521;-68
2023/09/09 03:48:28;;;;;;;8.75;5.93;;;;;;;;;;7371305;19;20011;-68
2023/09/09 03:51:00;;;;;;;7.95;5.07;;;;;;;;;;7394745;19;20006;-68
2023/09/09 03:53:27;;;;;;;7.88;4.50;;;;;;;;;;7369212;19;20007;-68
2023/09/09 03:55:53;;;;;;;6.10;3.70;;;;;;;;;;7371091;19;20575;-68
2023/09/09 03:58:18;;;;;;;6.68;4.07;;;;;;;;;;7373043;19;20003;-68
2023/09/09 04:00:46;;;;;;;7.25;3.92;;;;;;;;;;7370995;19;20017;-68
2023/09/09 04:03:12;;;;;;;6.97;3.75;;;;;;;;;;7370259;19;20010;-68
2023/09/09 04:05:37;;;;;;;8.27;4.00;;;;;;;;;;7393979;19;20710;-68
2023/09/09 04:08:08;;;;;;;9.20;4.10;;;;;;;;;;7371101;19;20003;-68
2023/09/09 04:10:33;;;;;;;6.10;3.67;;;;;;;;;;7371801;19;20032;-68
2023/09/09 04:12:59;;;;;;;6.63;3.63;;;;;;;;;;7370823;19;20002;-68
2023/09/09 04:15:24;;;;;;;6.28;3.55;;;;;;;;;;7372033;19;20010;-68
2023/09/09 04:17:49;;;;;;;7.05;3.63;;;;;;;;;;7394013;19;20010;-69
2023/09/09 04:20:14;;;;;;;10.27;3.97;;;;;;;;;;7371471;19;20464;-69
2023/09/09 04:22:40;;;;;;;7.63;3.97;;;;;;;;;;7369198;19;20020;-69
2023/09/09 04:25:05;;;;;;;7.90;3.72;;;;;;;;;;7371640;19;20085;-69
2023/09/09 04:27:31;;;;;;;6.40;3.88;;;;;;;;;;7372186;19;20007;-70
2023/09/09 04:29:57;;;;;;;6.45;3.60;;;;;;;;;;7376596;19;20472;-69
2023/09/09 04:32:22;;;;;;;7.72;4.05;;;;;;;;;;7391852;19;20001;-69
2023/09/09 04:34:48;;;;;;;6.78;4.03;;;;;;;;;;7370947;19;20006;-68
2023/09/09 04:37:14;;;;;;;7.13;4.28;;;;;;;;;;7371911;19;20010;-68
2023/09/09 04:39:39;;;;;;;6.40;3.63;;;;;;;;;;7371743;19;20006;-68
2023/09/09 04:42:05;;;;;;;5.90;3.50;;;;;;;;;;7370001;19;20003;-68
2023/09/09 04:44:30;;;;;;;6.97;3.42;;;;;;;;;;7390551;19;20002;-69
2023/09/09 04:46:55;;;;;;;8.50;3.95;;;;;;;;;;7370653;19;19998;-69
2023/09/09 04:49:22;;;;;;;6.57;3.60;;;;;;;;;;7370524;19;20388;-69
2023/09/09 04:51:48;;;;;;;6.78;3.92;;;;;;;;;;7369378;19;20006;-68
2023/09/09 04:54:13;;;;;;;5.78;3.40;;;;;;;;;;7370266;19;20123;-68
2023/09/09 04:56:39;;;;;;;6.18;3.88;;;;;;;;;;7389285;19;20031;-69
2023/09/09 04:59:04;;;;;;;7.20;4.10;;;;;;;;;;7368747;19;20092;-68
2023/09/09 05:01:30;;;;;;;7.47;4.15;;;;;;;;;;7370371;19;20010;-69
2023/09/09 05:03:55;;;;;;;9.23;3.50;;;;;;;;;;7371235;19;20754;-68
2023/09/09 05:06:20;;;;;;;7.43;4.00;;;;;;;;;;7370660;19;20082;-68
2023/09/09 05:08:46;;;;;;;5.75;3.30;;;;;;;;;;7392610;19;20086;-67
2023/09/09 05:11:11;;;;;;;8.75;3.72;;;;;;;;;;7369828;19;20512;-69
2023/09/09 05:13:36;;;;;;;6.60;4.05;;;;;;;;;;7368901;19;20014;-68
2023/09/09 05:16:02;;;;;;;5.72;3.17;;;;;;;;;;7370852;19;20010;-68
2023/09/09 05:18:28;;;;;;;6.13;3.78;;;;;;;;;;7370033;19;20014;-68
2023/09/09 05:20:53;;;;;;;6.65;3.85;;;;;;;;;;7392503;19;20044;-68
2023/09/09 05:23:18;;;;;;;7.55;3.72;;;;;;;;;;7367562;19;20487;-69
2023/09/09 05:25:44;;;;;;;6.45;3.45;;;;;;;;;;7369920;19;20101;-68
2023/09/09 05:28:09;;;;;;;6.32;3.50;;;;;;;;;;7370040;19;20011;-69
2023/09/09 05:30:39;;;;;;;7.25;4.13;;;;;;;;;;7369815;19;20082;-68
2023/09/09 05:33:04;;;;;;;7.85;4.18;;;;;;;;;;7367923;19;20043;-68
2023/09/09 05:35:29;;;;;;;5.57;3.35;;;;;;;;;;7390641;19;20460;-68
2023/09/09 05:37:54;;;;;;;7.38;3.95;;;;;;;;;;7369497;19;20013;-69
2023/09/09 05:40:20;;;;;;;7.05;3.53;;;;;;;;;;7368076;19;20007;-69
2023/09/09 05:42:45;;;;;;;5.57;3.38;;;;;;;;;;7368943;19;20010;-69
2023/09/09 05:45:11;;;;;;;6.00;3.53;;;;;;;;;;7371285;19;20002;-69
2023/09/09 05:47:37;;;;;;;6.63;3.55;;;;;;;;;;7392554;19;20107;-69
2023/09/09 05:50:02;;;;;;;7.55;3.60;;;;;;;;;;7368861;19;20012;-69
2023/09/09 05:52:29;;;;;;;5.57;3.00;;;;;;;;;;7367503;19;20010;-68
2023/09/09 05:54:55;;;;;;;5.97;3.63;;;;;;;;;;7369011;19;20010;-68
2023/09/09 05:57:20;;;;;;;6.57;3.80;;;;;;;;;;7369325;19;20006;-68
2023/09/09 05:59:46;;;;;;;7.80;4.10;;;;;;;;;;7390882;19;20002;-68
2023/09/09 06:02:11;;;;;;;9.40;3.90;;;;;;;;;;7368020;19;20007;-68
2023/09/09 06:04:36;;;;;;;6.95;3.85;;;;;;;;;;7368341;19;20010;-68
2023/09/09 06:07:02;;;;;;;6.68;3.65;;;;;;;;;;7367977;19;20017;-68
2023/09/09 06:09:27;;;;;;;6.20;3.30;;;;;;;;;;7368536;19;20049;-68
2023/09/09 06:11:53;;;;;;;5.95;3.60;;;;;;;;;;7389999;19;20058;-68
2023/09/09 06:14:18;;;;;;;7.43;3.67;;;;;;;;;;7368462;19;20010;-68
2023/09/09 06:16:43;;;;;;;6.25;3.78;;;;;;;;;;7367985;19;20010;-68
2023/09/09 06:19:09;;;;;;;7.30;4.07;;;;;;;;;;7368537;19;20064;-68
2023/09/09 06:21:34;;;;;;;6.72;3.70;;;;;;;;;;7367388;19;20023;-68
2023/09/09 06:23:59;;;;;;;5.60;3.60;;;;;;;;;;7368568;19;20013;-68
2023/09/09 06:26:30;;;;;;;8.50;3.58;;;;;;;;;;7389191;19;20007;-68
2023/09/09 06:28:55;;;;;;;7.63;3.97;;;;;;;;;;7366302;19;20368;-69
2023/09/09 06:31:21;;;;;;;6.05;3.60;;;;;;;;;;7366617;19;20010;-69
2023/09/09 06:33:46;;;;;;;5.88;3.58;;;;;;;;;;7367939;19;20021;-69
2023/09/09 06:36:11;;;;;;;4.93;2.92;;;;;;;;;;7367446;19;20022;-69
2023/09/09 06:38:37;;;;;;;8.73;3.83;;;;;;;;;;7389321;19;19999;-69
2023/09/09 06:41:02;;;;;;;5.78;3.50;;;;;;;;;;7366788;19;20395;-69
2023/09/09 06:43:27;;;;;;;8.77;3.38;;;;;;;;;;7365903;19;20026;-69
2023/09/09 06:45:53;;;;;;;5.03;3.25;;;;;;;;;;7367321;19;20021;-69
2023/09/09 06:48:18;;;;;;;5.97;3.58;;;;;;;;;;7366448;19;20101;-69
2023/09/09 06:50:47;;;;;;;5.93;3.40;;;;;;;;;;7390333;19;20353;-69
2023/09/09 06:53:13;;;;;;;5.50;3.55;;;;;;;;;;7365259;19;20014;-69
2023/09/09 06:55:41;;;;;;;8.23;3.35;;;;;;;;;;7365936;19;20014;-69
2023/09/09 06:58:07;;;;;;;5.28;3.05;;;;;;;;;;7365816;19;20028;-69
2023/09/09 07:00:32;;;;;;;5.57;3.13;;;;;;;;;;7366103;19;20011;-69
2023/09/09 07:02:58;;;;;;;5.78;3.03;;;;;;;;;;7365801;19;20002;-69
2023/09/09 07:05:24;;;;;;;7.32;2.97;;;;;;;;;;7388987;19;20006;-69
2023/09/09 07:07:49;;;;;;;5.60;3.33;;;;;;;;;;7369511;19;20021;-69
2023/09/09 07:10:15;;;;;;;5.68;3.35;;;;;;;;;;7374888;19;20014;-69
2023/09/09 07:12:42;;;;;;;6.68;3.47;;;;;;;;;;7373021;19;20021;-69
2023/09/09 07:15:08;;;;;;;6.38;3.08;;;;;;;;;;7374444;19;20010;-68
2023/09/09 07:17:33;;;;;;;5.47;3.25;;;;;;;;;;7396461;19;20014;-69
2023/09/09 07:19:59;;;;;;;5.63;3.50;;;;;;;;;;7372726;19;20027;-69
2023/09/09 07:22:24;;;;;;;6.60;3.55;;;;;;;;;;7371840;19;20015;-70
2023/09/09 07:24:49;;;;;;;5.32;3.38;;;;;;;;;;7373545;19;20128;-69
2023/09/09 07:27:16;;;;;;;6.68;3.53;;;;;;;;;;7374353;19;20032;-69
2023/09/09 07:29:41;;;;;;;6.93;3.85;;;;;;;;;;7393396;19;20007;-69
2023/09/09 07:32:06;;;;;;;6.38;3.40;;;;;;;;;;7372402;19;20440;-69
2023/09/09 07:34:32;;;;;;;5.80;3.63;;;;;;;;;;7373486;19;20002;-69
2023/09/09 07:36:58;;;;;;;6.10;3.15;;;;;;;;;;7374179;19;20005;-69
2023/09/09 07:39:26;;;;;;;5.03;3.15;;;;;;;;;;7374344;19;20073;-69
2023/09/09 07:41:52;;;;;;;5.45;3.30;;;;;;;;;;7395643;19;20118;-69
2023/09/09 07:44:17;;;;;;;7.20;3.58;;;;;;;;;;7375393;19;20002;-69
2023/09/09 07:46:43;;;;;;;5.78;3.42;;;;;;;;;;7376055;19;20011;-69
2023/09/09 07:49:08;;;;;;;6.03;3.30;;;;;;;;;;7374694;19;20021;-69
2023/09/09 07:51:33;;;;;;;6.15;3.40;;;;;;;;;;7372108;19;20021;-69
2023/09/09 07:53:59;;;;;;;7.65;2.90;;;;;;;;;;7374394;19;20038;-69
2023/09/09 07:56:24;;;;;;;6.30;3.38;;;;;;;;;;7394538;19;20011;-69
2023/09/09 07:58:50;;;;;;;5.78;3.47;;;;;;;;;;7372877;19;20011;-69
2023/09/09 08:01:15;;;;;;;7.05;3.05;;;;;;;;;;7371748;19;20010;-69
2023/09/09 08:03:41;;;;;;;6.20;3.40;;;;;;;;;;7371329;19;20011;-69
2023/09/09 08:06:06;;;;;;;5.78;3.17;;;;;;;;;;7372180;19;20003;-69
2023/09/09 08:08:34;;;;;;;5.65;3.63;;;;;;;;;;7394124;19;20031;-69
2023/09/09 08:11:00;;;;;;;7.10;3.55;;;;;;;;;;7372046;19;20074;-69
2023/09/09 08:13:26;;;;;;;5.65;3.33;;;;;;;;;;7370553;19;20007;-69
2023/09/09 08:15:51;;;;;;;6.07;3.45;;;;;;;;;;7372478;19;20474;-69
2023/09/09 08:18:17;;;;;;;5.30;3.17;;;;;;;;;;7372379;19;20115;-69
2023/09/09 08:20:42;;;;;;;6.15;3.42;;;;;;;;;;7394504;19;20078;-69
2023/09/09 08:23:08;;;;;;;5.25;3.25;;;;;;;;;;7369247;19;20006;-69
2023/09/09 08:25:34;;;;;;;4.90;3.40;;;;;;;;;;7372473;19;20113;-69
2023/09/09 08:28:03;;;;;;;6.72;3.28;;;;;;;;;;7373365;19;20017;-69
2023/09/09 08:30:29;;;;;;;6.18;3.35;;;;;;;;;;7371631;19;20006;-69
2023/09/09 08:32:55;;;;;;;5.35;3.20;;;;;;;;;;7391682;19;20371;-67
2023/09/09 08:35:22;;;;;;;5.10;3.15;;;;;;;;;;7371370;19;20065;-69
2023/09/09 08:37:47;;;;;;;6.20;3.22;;;;;;;;;;7370792;19;20067;-68
2023/09/09 08:40:13;;;;;;;5.40;3.03;;;;;;;;;;7371132;19;20011;-68
2023/09/09 08:43:14;;;;;;;6.13;3.55;;;;;;;;;;7369595;19;20014;-69
2023/09/09 08:45:45;;;;;;;4.78;2.83;;;;;;;;;;7370223;19;20006;-67
2023/09/09 08:48:13;;;;;;;5.75;3.03;;;;;;;;;;7370636;19;20010;-68
2023/09/09 08:50:38;;;;;;;6.75;3.42;;;;;;;;;;7392494;19;20086;-68
2023/09/09 08:53:06;;;;;;;5.20;3.10;;;;;;;;;;7367977;19;20023;-68
2023/09/09 08:55:32;;;;;;;5.38;3.15;;;;;;;;;;7370574;19;20031;-68
2023/09/09 08:57:57;;;;;;;5.43;2.92;;;;;;;;;;7370952;19;19999;-68
2023/09/09 09:00:31;;;;;;;6.68;3.00;;;;;;;;;;7370145;19;20009;-69
2023/09/09 09:02:58;;;;;;;4.88;3.42;;;;;;;;;;7376106;19;20159;-69
2023/09/09 09:05:25;;;;;;;4.20;2.80;;;;;;;;;;7392247;19;20035;-69
2023/09/09 09:07:50;;;;;;;5.18;3.10;;;;;;;;;;7369748;19;20003;-69
2023/09/09 09:10:15;;;;;;;5.77;3.20;;;;;;;;;;7370531;19;20089;-69
2023/09/09 09:12:43;;;;;;;4.60;2.72;;;;;;;;;;7368683;19;20762;-69
2023/09/09 09:15:10;;;;;;;5.60;3.25;;;;;;;;;;7370013;19;20120;-69
2023/09/09 09:17:40;;;;;;;5.20;3.22;;;;;;;;;;7392217;19;19999;-69
2023/09/09 09:20:07;;;;;;;;;;;;;;;;;;7369845;19;20030;-68
2023/09/09 09:22:32;;;;;;;4.90;2.97;;;;;;;;;;7367822;19;19911;-69
2023/09/09 09:24:57;;;;;;;4.68;3.08;;;;;;;;;;7370329;19;20003;-69
2023/09/09 09:27:23;;;;;;;4.45;3.03;;;;;;;;;;7369874;19;20003;-68
2023/09/09 09:29:48;;;;;;;5.35;2.90;;;;;;;;;;7388128;19;20034;-68
2023/09/09 09:32:16;;;;;;;4.75;3.10;;;;;;;;;;7368476;19;20010;-69
2023/09/09 09:34:41;;;;;;;4.40;2.90;;;;;;;;;;7369632;19;20031;-69
2023/09/09 09:37:15;;;;;;;7.40;3.20;;;;;;;;;;7369411;19;20395;-69
2023/09/09 09:39:40;;;;;;;5.85;3.03;;;;;;;;;;7369972;19;20026;-69
2023/09/09 09:42:09;;;;;;;5.00;2.83;;;;;;;;;;7368636;19;20452;-69
2023/09/09 09:44:35;;;;;;;5.82;3.67;;;;;;;;;;7390338;19;20009;-69
2023/09/09 09:47:05;;;;;;;5.38;3.13;;;;;;;;;;7369681;19;19998;-69
2023/09/09 09:49:38;;;;;;;7.28;3.03;;;;;;;;;;7368969;19;20062;-69
2023/09/09 09:52:04;;;;;;;5.30;3.17;;;;;;;;;;7369243;19;20084;-69
2023/09/09 09:54:33;;;;;;;6.30;3.33;;;;;;;;;;7369392;19;20472;-69
2023/09/09 09:57:02;;;;;;;4.78;3.28;;;;;;;;;;7369886;19;20473;-69
2023/09/09 09:59:33;;;;;;;5.60;3.53;;;;;;;;;;7390754;19;20015;-69
2023/09/09 10:02:00;;;;;;;5.70;3.78;;;;;;;;;;7367615;19;20003;-69
2023/09/09 10:04:27;;;;;;;5.10;3.28;;;;;;;;;;7367949;19;20044;-69
2023/09/09 10:06:56;;;;;;;4.80;3.35;;;;;;;;;;7372439;19;20011;-69
2023/09/09 10:09:36;;;;;;;6.72;3.40;;;;;;;;;;7373489;19;20074;-69
2023/09/09 10:12:10;;;;;;;5.55;3.22;;;;;;;;;;7370239;19;19999;-70
2023/09/09 10:14:36;;;;;;;5.80;3.30;;;;;;;;;;7389852;19;20006;-70
2023/09/09 10:17:06;;;;;;;4.70;3.20;;;;;;;;;;7368707;19;20105;-69
2023/09/09 10:19:33;;;;;;;;;;;;;;;;;;7369636;19;20002;-70
2023/09/09 10:21:59;;;;;;;6.70;2.80;;;;;;;;;;7367469;19;19930;-69
2023/09/09 10:24:26;;;;;;;6.07;3.28;;;;;;;;;;7368185;19;20006;-71
2023/09/09 10:26:52;;;;;;;5.50;3.40;;;;;;;;;;7390404;19;20014;-69
2023/09/09 10:29:18;;;;;;;4.68;3.10;;;;;;;;;;7367615;19;20003;-69
2023/09/09 10:31:43;;;;;;;4.82;2.95;;;;;;;;;;7367503;19;20088;-70
2023/09/09 10:34:10;;;;;;;6.35;3.25;;;;;;;;;;7368683;19;20014;-70
2023/09/09 10:36:36;;;;;;;6.45;3.30;;;;;;;;;;7367484;19;20468;-70
2023/09/09 10:39:02;;;;;;;5.97;3.42;;;;;;;;;;7369766;19;19991;-70
2023/09/09 10:41:29;;;;;;;4.95;3.20;;;;;;;;;;7390052;19;20795;-69
2023/09/09 10:43:54;;;;;;;5.10;3.15;;;;;;;;;;7368851;19;20013;-69
2023/09/09 10:46:33;;;;;;;5.70;3.25;;;;;;;;;;7369234;19;20539;-69
2023/09/09 10:49:05;;;;;;;6.28;3.20;;;;;;;;;;7367264;19;20049;-70
2023/09/09 10:51:50;;;;;;;5.25;3.17;;;;;;;;;;7372368;19;20029;-70
2023/09/09 10:54:17;;;;;;;5.95;3.20;;;;;;;;;;7372324;19;20609;-70
2023/09/09 10:56:47;;;;;;;5.30;3.10;;;;;;;;;;7392712;19;20010;-70
2023/09/09 10:59:17;;;;;;;5.65;3.30;;;;;;;;;;7368420;19;20018;-70
2023/09/09 11:01:43;;;;;;;5.43;3.05;;;;;;;;;;7366896;19;20011;-70
2023/09/09 11:04:22;;;;;;;5.38;3.17;;;;;;;;;;7373176;19;20155;-69
2023/09/09 11:07:09;;;;;;;4.55;2.78;;;;;;;;;;7371061;19;20036;-70
2023/09/09 11:09:36;;;;;;;6.53;3.20;;;;;;;;;;7367356;19;20036;-69
2023/09/09 11:12:12;;;;;;;5.07;3.22;;;;;;;;;;7371971;19;19995;-70
2023/09/09 11:14:43;;;;;;;4.47;2.83;;;;;;;;;;7392275;19;20014;-70
2023/09/09 11:17:09;;;;;;;7.72;3.05;;;;;;;;;;7367549;19;20010;-69
2023/09/09 11:19:36;;;;;;;4.90;3.22;;;;;;;;;;7368139;19;20006;-70
2023/09/09 11:22:04;;;;;;;4.57;3.10;;;;;;;;;;7366587;19;20042;-70
2023/09/09 11:24:29;;;;;;;5.43;3.15;;;;;;;;;;7369078;19;20093;-70
2023/09/09 11:26:57;;;;;;;5.22;3.08;;;;;;;;;;7389772;19;20019;-70
2023/09/09 11:29:23;;;;;;;5.40;3.30;;;;;;;;;;7366343;19;20484;-70
2023/09/09 11:31:49;;;;;;;5.55;3.25;;;;;;;;;;7366801;19;20010;-69
2023/09/09 11:34:14;;;;;;;5.50;3.50;;;;;;;;;;7368357;19;20013;-69
2023/09/09 11:36:41;;;;;;;5.65;3.78;;;;;;;;;;7369181;19;20054;-69
2023/09/09 11:39:07;;;;;;;5.05;3.13;;;;;;;;;;7372804;19;20007;-69
2023/09/09 11:41:34;;;;;;;6.05;3.38;;;;;;;;;;7392077;19;20044;-69
2023/09/09 11:44:06;;;;;;;5.30;3.28;;;;;;;;;;7367235;19;20014;-69
2023/09/09 11:46:32;;;;;;;5.57;3.17;;;;;;;;;;7366991;19;20039;-69
2023/09/09 11:48:58;;;;;;;5.38;3.28;;;;;;;;;;7366758;19;20010;-69
2023/09/09 11:51:23;;;;;;;4.85;3.25;;;;;;;;;;7365138;19;20037;-69
2023/09/09 11:53:49;;;;;;;4.70;2.78;;;;;;;;;;7391718;19;20011;-69
2023/09/09 11:56:19;;;;;;;4.97;3.10;;;;;;;;;;7373458;19;20046;-69
2023/09/09 11:58:44;;;;;;;5.88;3.05;;;;;;;;;;7372679;19;20377;-69
2023/09/09 12:01:13;;;;;;;5.03;2.83;;;;;;;;;;7371922;19;20018;-69
2023/09/09 12:03:39;;;;;;;4.68;3.28;;;;;;;;;;7370313;19;20010;-69
2023/09/09 12:06:07;;;;;;;5.15;3.20;;;;;;;;;;7374088;19;20497;-69
2023/09/09 12:08:33;;;;;;;5.00;3.40;;;;;;;;;;7393695;19;20338;-69
2023/09/09 12:11:02;;;;;;;5.43;3.38;;;;;;;;;;7373094;19;20018;-69
2023/09/09 12:13:28;;;;;;;5.15;3.10;;;;;;;;;;7371682;19;20547;-69
2023/09/09 12:15:55;;;;;;;6.47;3.22;;;;;;;;;;7373554;19;20363;-69
2023/09/09 12:18:21;;;;;;;5.80;2.97;;;;;;;;;;7373232;19;20007;-69
2023/09/09 12:21:03;;;;;;;6.00;3.08;;;;;;;;;;7395266;19;20002;-69
2023/09/09 12:23:34;;;;;;;5.05;3.22;;;;;;;;;;7370896;19;20015;-69
2023/09/09 12:26:14;;;;;;;6.30;3.28;;;;;;;;;;7373680;19;20022;-69
2023/09/09 12:28:45;;;;;;;6.43;3.28;;;;;;;;;;7371502;19;20015;-69
2023/09/09 12:31:11;;;;;;;4.82;3.05;;;;;;;;;;7373345;19;20691;-69
2023/09/09 12:33:44;;;;;;;4.70;2.90;;;;;;;;;;7370672;19;20031;-69
2023/09/09 12:36:19;;;;;;;4.53;2.97;;;;;;;;;;7374095;19;20010;-69
2023/09/09 12:38:47;;;;;;;5.78;3.40;;;;;;;;;;7394566;19;20015;-69
2023/09/09 12:41:17;;;;;;;5.38;3.28;;;;;;;;;;7372594;19;20019;-69
2023/09/09 12:43:43;;;;;;;6.72;3.15;;;;;;;;;;7372066;19;20468;-69
2023/09/09 12:46:13;;;;;;;6.05;2.78;;;;;;;;;;7372217;19;20010;-69
2023/09/09 12:48:54;;;;;;;;;;;;;;;;;;7373602;19;20014;-70
2023/09/09 12:51:20;;;;;;;5.53;3.00;;;;;;;;;;7371418;19;19923;-70
2023/09/09 12:53:46;;;;;;;5.93;3.28;;;;;;;;;;7389198;19;20010;-70
2023/09/09 12:56:11;;;;;;;5.78;3.10;;;;;;;;;;7360623;19;20002;-69
2023/09/09 12:58:37;;;;;;;5.40;3.00;;;;;;;;;;7366721;19;20007;-69
2023/09/09 13:01:03;;;;;;;4.95;3.08;;;;;;;;;;7365844;19;20021;-69
2023/09/09 13:03:28;;;;;;;4.65;2.85;;;;;;;;;;7366404;19;20108;-71
2023/09/09 13:05:53;;;;;;;4.53;2.72;;;;;;;;;;7385625;19;20003;-68
2023/09/09 13:08:19;;;;;;;4.47;2.77;;;;;;;;;;7370403;19;20544;-68
2023/09/09 13:10:44;;;;;;;5.60;2.90;;;;;;;;;;7370308;19;20263;-69
2023/09/09 13:13:09;;;;;;;4.40;2.72;;;;;;;;;;7367519;19;20011;-70
2023/09/09 13:15:35;;;;;;;7.65;2.80;;;;;;;;;;7368721;19;20027;-69
2023/09/09 13:18:00;;;;;;;5.40;2.60;;;;;;;;;;7369083;19;20051;-68
2023/09/09 13:20:25;;;;;;;4.65;2.70;;;;;;;;;;7387596;19;20002;-67
2023/09/09 13:22:51;;;;;;;4.68;3.08;;;;;;;;;;7364943;19;20013;-68
2023/09/09 13:25:16;;;;;;;4.77;2.93;;;;;;;;;;7367848;19;20014;-69
2023/09/09 13:27:42;;;;;;;5.10;3.10;;;;;;;;;;7366429;19;20813;-69
2023/09/09 13:30:08;;;;;;;6.50;3.10;;;;;;;;;;7365236;19;20003;-69
2023/09/09 13:32:33;;;;;;;4.63;2.80;;;;;;;;;;7387009;19;20710;-69
2023/09/09 13:34:59;;;;;;;5.40;3.10;;;;;;;;;;7366178;19;20411;-68
2023/09/09 13:37:26;;;;;;;4.75;2.92;;;;;;;;;;7381024;19;20010;-69
2023/09/09 13:39:51;;;;;;;5.00;2.80;;;;;;;;;;7366078;19;20002;-70
2023/09/09 13:42:16;;;;;;;5.07;3.10;;;;;;;;;;7366006;19;20007;-69
2023/09/09 13:44:43;;;;;;;5.32;2.92;;;;;;;;;;7387320;19;20006;-69
2023/09/09 13:47:08;;;;;;;5.03;2.97;;;;;;;;;;7365279;19;20929;-68
2023/09/09 13:49:35;;;;;;;5.40;3.20;;;;;;;;;;7367474;19;20012;-69
2023/09/09 13:52:01;;;;;;;4.15;2.63;;;;;;;;;;7364542;19;20011;-69
2023/09/09 13:54:27;;;;;;;5.53;3.40;;;;;;;;;;7367114;19;20010;-69
2023/09/09 13:56:54;;;;;;;6.60;3.22;;;;;;;;;;7387416;19;20523;-69
2023/09/09 13:59:19;;;;;;;5.35;2.95;;;;;;;;;;7364781;19;20010;-69
2023/09/09 14:01:44;;;;;;;7.53;3.55;;;;;;;;;;7364066;19;20039;-69
2023/09/09 14:04:10;;;;;;;7.28;3.25;;;;;;;;;;7366064;19;20014;-69
2023/09/09 14:06:35;;;;;;;5.18;2.83;;;;;;;;;;7367041;19;20006;-70
2023/09/09 14:09:00;;;;;;;5.40;3.30;;;;;;;;;;7365337;19;20007;-69
2023/09/09 14:11:26;;;;;;;4.63;3.00;;;;;;;;;;7388103;19;20045;-70
2023/09/09 14:13:51;;;;;;;4.60;3.15;;;;;;;;;;7363034;19;20014;-69
2023/09/09 14:16:16;;;;;;;5.72;3.05;;;;;;;;;;7366152;19;20039;-70
2023/09/09 14:18:42;;;;;;;4.65;3.10;;;;;;;;;;7365289;19;20018;-70
2023/09/09 14:21:07;;;;;;;5.30;2.77;;;;;;;;;;7363727;19;20014;-69
2023/09/09 14:23:32;;;;;;;5.83;3.53;;;;;;;;;;7383149;19;21750;-70
2023/09/09 14:26:02;;;;;;;5.65;3.40;;;;;;;;;;7365082;19;20259;-69
2023/09/09 14:28:27;;;;;;;5.63;3.00;;;;;;;;;;7362206;19;20006;-69
2023/09/09 14:30:53;;;;;;;5.55;3.40;;;;;;;;;;7365055;19;20088;-69
2023/09/09 14:33:18;;;;;;;4.93;3.20;;;;;;;;;;7363658;19;20504;-70
2023/09/09 14:35:43;;;;;;;5.90;3.20;;;;;;;;;;7384149;19;20468;-70
2023/09/09 14:38:09;;;;;;;5.35;3.30;;;;;;;;;;7366164;19;20015;-69